KIDA

Idaho Falls Regional Airport

Idaho Falls, Idaho, USA
METAR KIDA 221353Z 35006KT 10SM OVC110 M01/M03 A3015 RMK AO2 SLP212 T10061033
Observed Flight Rules
Oct-22 @ 13:53 UTC (28 minutes ago) Visual Flight Rules
Wind Visibility Clouds
350° at 6 knots 10 miles
  • Overcast at 11,000' AGL
Temperatures Readings
Current -1°C / 30°F
Dewpoint -3°C / 27°F
Humidity 86%
Altimeter 30.15" Hg
Pressure 1021.2 hPa
Elevation 1453
METAR KIDA 221353Z 35006KT 10SM OVC110 M01/M03 A3015 RMK AO2 SLP212 T10061033
Observed Flight Rules
Oct-22 @ 13:53 UTC
(28 minutes ago)
VFR
Wind Visibility
350° at 6 knots 10 miles
Clouds
  • Overcast at 11,000' AGL
Temperature Dewpoint
-1°C / 30°F -3°C / 27°F
Humidity Altimeter Pressure
86% 30.15" Hg 1021.2 hPa